createdAt,value
2017-08-24T00:00:11.343Z,19.40
2017-08-24T00:02:38.904Z,19.50
2017-08-24T00:05:06.476Z,19.60
2017-08-24T00:07:34.832Z,19.70
2017-08-24T00:10:02.420Z,19.60
2017-08-24T00:12:30.024Z,19.50
2017-08-24T00:14:57.587Z,19.40
2017-08-24T00:17:25.552Z,19.20
2017-08-24T00:19:53.144Z,19.10
2017-08-24T00:22:20.741Z,19.10
2017-08-24T00:24:48.430Z,19.20
2017-08-24T00:27:16.013Z,19.30
2017-08-24T00:29:43.607Z,19.60
2017-08-24T00:32:11.189Z,19.70
2017-08-24T00:34:39.176Z,19.80
2017-08-24T00:37:06.761Z,19.90
2017-08-24T00:39:34.337Z,20.10
2017-08-24T00:42:01.963Z,20.10
2017-08-24T00:44:29.807Z,20.10
2017-08-24T00:46:57.408Z,20.10
2017-08-24T00:49:24.973Z,19.90
2017-08-24T00:51:53.615Z,19.50
2017-08-24T00:54:21.189Z,19.50
2017-08-24T00:56:48.780Z,19.40
2017-08-24T00:59:16.387Z,19.30
2017-08-24T01:01:43.951Z,19.30
2017-08-24T01:04:11.722Z,19.20
2017-08-24T01:06:39.301Z,19.30
2017-08-24T01:09:07.250Z,19.30
2017-08-24T01:11:34.823Z,19.40
2017-08-24T01:14:02.437Z,19.40
2017-08-24T01:16:30.027Z,19.40
2017-08-24T01:18:57.587Z,19.50
2017-08-24T01:21:25.189Z,19.40
2017-08-24T01:23:53.555Z,19.40
2017-08-24T01:26:22.310Z,19.50
2017-08-24T01:28:49.861Z,19.50
2017-08-24T01:31:17.487Z,19.70
2017-08-24T01:33:45.086Z,19.70
2017-08-24T01:36:12.679Z,19.70
2017-08-24T01:38:40.262Z,19.80
2017-08-24T01:41:07.828Z,19.90
2017-08-24T01:43:35.692Z,19.90
2017-08-24T01:46:03.385Z,20.00
2017-08-24T01:48:30.982Z,20.10
2017-08-24T01:50:58.568Z,20.10
2017-08-24T01:53:26.135Z,20.10
2017-08-24T01:55:53.808Z,20.10
2017-08-24T01:58:21.357Z,20.10
2017-08-24T02:00:49.259Z,20.20
2017-08-24T02:03:16.827Z,20.20
2017-08-24T02:05:44.415Z,20.20
2017-08-24T02:08:12.013Z,20.30
2017-08-24T02:10:39.577Z,20.20
2017-08-24T02:13:07.175Z,20.30
2017-08-24T02:15:34.747Z,20.30
2017-08-24T02:18:02.674Z,20.30
2017-08-24T02:20:30.273Z,20.30
2017-08-24T02:22:57.877Z,20.40
2017-08-24T02:25:25.562Z,20.40
2017-08-24T02:27:53.135Z,20.40
2017-08-24T02:30:20.740Z,20.50
2017-08-24T02:32:48.320Z,20.50
2017-08-24T02:35:16.250Z,20.50
2017-08-24T02:37:43.814Z,20.50
2017-08-24T02:40:11.399Z,20.60
2017-08-24T02:42:38.986Z,20.60
2017-08-24T02:45:06.874Z,20.70
2017-08-24T02:47:34.728Z,20.70
2017-08-24T02:50:02.368Z,20.80
2017-08-24T02:52:29.945Z,20.80
2017-08-24T02:54:57.551Z,20.80
2017-08-24T02:57:25.131Z,20.80
2017-08-24T02:59:52.724Z,20.90
2017-08-24T03:02:20.413Z,20.90
2017-08-24T03:04:48.348Z,20.90
2017-08-24T03:07:15.925Z,20.90
2017-08-24T03:09:43.504Z,20.90
2017-08-24T03:12:11.177Z,20.90
2017-08-24T03:14:38.756Z,20.90
2017-08-24T03:17:06.430Z,20.90
2017-08-24T03:19:33.997Z,20.90
2017-08-24T03:22:01.841Z,20.80
2017-08-24T03:24:29.425Z,20.80
2017-08-24T03:26:57.075Z,20.80
2017-08-24T03:29:24.676Z,20.80
2017-08-24T03:31:52.243Z,20.80
2017-08-24T03:34:19.832Z,20.80
2017-08-24T03:36:47.411Z,20.80
2017-08-24T03:39:15.307Z,20.80
2017-08-24T03:41:42.904Z,20.90
2017-08-24T03:44:11.276Z,21.00
2017-08-24T03:46:39.633Z,21.00
2017-08-24T03:49:07.199Z,21.00
2017-08-24T03:51:34.780Z,20.90
2017-08-24T03:54:02.344Z,20.90
2017-08-24T03:56:30.204Z,20.80
2017-08-24T03:58:57.812Z,20.80
2017-08-24T04:01:25.391Z,20.80
2017-08-24T04:03:52.956Z,20.80
2017-08-24T04:06:20.575Z,20.80
2017-08-24T04:08:48.167Z,20.80
2017-08-24T04:11:15.744Z,20.70
2017-08-24T04:13:43.678Z,20.70
2017-08-24T04:16:11.250Z,20.70
2017-08-24T04:18:38.835Z,20.70
2017-08-24T04:21:06.417Z,20.70
2017-08-24T04:23:33.975Z,20.70
2017-08-24T04:26:01.564Z,20.70
2017-08-24T04:28:29.154Z,20.70
2017-08-24T04:30:57.116Z,20.70
2017-08-24T04:33:24.678Z,20.60
2017-08-24T04:35:52.270Z,20.70
2017-08-24T04:38:19.864Z,20.70
2017-08-24T04:40:47.447Z,20.60
2017-08-24T04:43:15.044Z,20.60
2017-08-24T04:45:42.637Z,20.60
2017-08-24T04:48:10.542Z,20.60
2017-08-24T04:50:38.093Z,20.50
2017-08-24T04:53:05.659Z,20.50
2017-08-24T04:55:33.318Z,20.50
2017-08-24T04:58:00.911Z,20.50
2017-08-24T05:00:28.519Z,20.60
2017-08-24T05:02:56.106Z,20.50
2017-08-24T05:05:24.067Z,20.50
2017-08-24T05:07:51.630Z,20.40
2017-08-24T05:10:19.187Z,20.50
2017-08-24T05:12:46.784Z,20.50
2017-08-24T05:15:14.484Z,20.40
2017-08-24T05:17:42.061Z,20.40
2017-08-24T05:20:09.621Z,20.40
2017-08-24T05:22:37.223Z,20.30
2017-08-24T05:25:04.814Z,20.30
2017-08-24T05:27:32.408Z,20.30
2017-08-24T05:30:00.395Z,20.30
2017-08-24T05:32:27.958Z,20.30
2017-08-24T05:34:55.544Z,20.40
2017-08-24T05:37:23.145Z,20.40
2017-08-24T05:39:50.741Z,20.50
2017-08-24T05:42:18.674Z,20.40
2017-08-24T05:44:46.397Z,20.40
2017-08-24T05:47:14.041Z,20.50
2017-08-24T05:49:41.630Z,20.50
2017-08-24T05:52:09.224Z,20.40
2017-08-24T05:54:36.852Z,20.40
2017-08-24T05:57:04.441Z,20.30
2017-08-24T05:59:32.328Z,20.30
2017-08-24T06:01:59.909Z,20.30
2017-08-24T06:04:28.288Z,20.40
2017-08-24T06:06:56.701Z,20.40
2017-08-24T06:09:24.272Z,20.40
2017-08-24T06:11:51.867Z,20.50
2017-08-24T06:14:19.483Z,20.50
2017-08-24T06:16:47.386Z,20.60
2017-08-24T06:19:14.952Z,20.70
2017-08-24T06:21:42.536Z,20.90
2017-08-24T06:24:10.131Z,21.20
2017-08-24T06:26:37.727Z,21.70
2017-08-24T06:29:05.314Z,22.90
2017-08-24T06:31:32.875Z,24.70
2017-08-24T06:34:00.878Z,26.20
2017-08-24T06:36:28.439Z,27.40
2017-08-24T06:38:56.013Z,28.10
2017-08-24T06:41:23.802Z,28.30
2017-08-24T06:43:51.448Z,28.70
2017-08-24T06:46:19.118Z,29.80
2017-08-24T06:48:46.704Z,30.30
2017-08-24T06:51:15.350Z,32.40
2017-08-24T06:53:43.090Z,32.30
2017-08-24T06:56:10.661Z,33.20
2017-08-24T06:58:38.242Z,33.30
2017-08-24T07:01:05.860Z,33.40
2017-08-24T07:03:33.475Z,34.10
2017-08-24T07:06:01.044Z,34.80
2017-08-24T07:08:28.981Z,34.80
2017-08-24T07:10:56.555Z,34.50
2017-08-24T07:13:24.164Z,34.60
2017-08-24T07:15:51.776Z,34.20
2017-08-24T07:18:20.777Z,33.00
2017-08-24T07:20:48.377Z,33.00
2017-08-24T07:23:15.961Z,32.50
2017-08-24T07:25:43.832Z,32.00
2017-08-24T07:28:11.418Z,31.80
2017-08-24T07:30:38.990Z,32.40
2017-08-24T07:33:06.606Z,32.80
2017-08-24T07:35:34.165Z,33.50
2017-08-24T07:38:01.769Z,34.40
2017-08-24T07:40:29.358Z,34.30
2017-08-24T07:42:57.379Z,33.90
2017-08-24T07:45:24.950Z,33.90
2017-08-24T07:47:52.562Z,34.10
2017-08-24T07:50:20.159Z,34.30
2017-08-24T07:52:47.747Z,35.50
2017-08-24T07:55:15.343Z,35.90
2017-08-24T07:57:42.922Z,35.90
2017-08-24T08:00:10.802Z,35.00
2017-08-24T08:02:38.390Z,34.30
2017-08-24T08:05:05.963Z,34.80
2017-08-24T08:07:34.326Z,35.30
2017-08-24T08:10:01.933Z,35.30
2017-08-24T08:12:29.571Z,35.20
2017-08-24T08:14:57.255Z,35.40
2017-08-24T08:17:25.140Z,35.50
2017-08-24T08:19:52.743Z,35.40
2017-08-24T08:22:20.353Z,36.30
2017-08-24T08:24:47.962Z,37.20
2017-08-24T08:27:15.540Z,37.80
2017-08-24T08:29:43.142Z,37.90
2017-08-24T08:32:10.708Z,38.00
2017-08-24T08:34:38.540Z,37.70
2017-08-24T08:37:06.127Z,38.00
2017-08-24T08:39:33.696Z,37.80
2017-08-24T08:42:01.322Z,38.50
2017-08-24T08:44:29.024Z,40.00
2017-08-24T08:46:56.536Z,40.60
2017-08-24T08:49:24.117Z,39.60
2017-08-24T08:51:52.030Z,39.30
2017-08-24T08:54:19.618Z,40.00
2017-08-24T08:56:47.226Z,40.20
2017-08-24T08:59:14.807Z,39.70
2017-08-24T09:01:42.425Z,38.30
2017-08-24T09:04:10.046Z,37.40
2017-08-24T09:06:37.631Z,37.10
2017-08-24T09:09:05.544Z,36.50
2017-08-24T09:11:33.169Z,35.80
2017-08-24T09:14:00.758Z,36.20
2017-08-24T09:16:28.363Z,35.90
2017-08-24T09:18:55.946Z,35.00
2017-08-24T09:21:23.924Z,33.80
2017-08-24T09:23:51.487Z,32.90
2017-08-24T09:26:19.316Z,32.50
2017-08-24T09:28:46.886Z,31.80
2017-08-24T09:31:14.462Z,32.30
2017-08-24T09:33:42.091Z,33.60
2017-08-24T09:36:09.664Z,34.30
2017-08-24T09:38:37.327Z,34.80
2017-08-24T09:41:05.222Z,34.80
2017-08-24T09:43:33.191Z,35.00
2017-08-24T09:46:00.765Z,34.20
2017-08-24T09:48:28.389Z,33.80
2017-08-24T09:50:56.008Z,32.70
2017-08-24T09:53:23.620Z,32.40
2017-08-24T09:55:51.210Z,31.60
2017-08-24T09:58:18.794Z,31.60
2017-08-24T10:00:47.535Z,30.40
2017-08-24T10:03:15.105Z,30.30
2017-08-24T10:05:42.680Z,29.70
2017-08-24T10:08:10.287Z,29.00
2017-08-24T10:10:37.870Z,28.50
2017-08-24T10:13:05.489Z,28.90
2017-08-24T10:15:33.055Z,29.30
2017-08-24T10:18:00.963Z,29.90
2017-08-24T10:20:28.529Z,30.10
2017-08-24T10:22:57.043Z,29.80
2017-08-24T10:25:24.646Z,30.70
2017-08-24T10:27:52.235Z,31.00
2017-08-24T10:30:19.897Z,32.10
2017-08-24T10:32:47.691Z,32.60
2017-08-24T10:35:15.568Z,32.90
2017-08-24T10:37:43.152Z,33.60
2017-08-24T10:40:10.728Z,34.40
2017-08-24T10:42:38.326Z,34.20
2017-08-24T10:45:05.923Z,33.80
2017-08-24T10:47:33.537Z,34.00
2017-08-24T10:50:01.118Z,33.90
2017-08-24T10:52:29.074Z,32.90
2017-08-24T10:54:56.647Z,33.90
2017-08-24T10:57:24.963Z,34.20
2017-08-24T10:59:52.567Z,34.20
2017-08-24T11:02:20.218Z,34.90
2017-08-24T11:04:47.802Z,34.80
2017-08-24T11:07:15.379Z,35.10
2017-08-24T11:09:43.358Z,35.40
2017-08-24T11:12:10.928Z,35.80
2017-08-24T11:14:38.490Z,36.00
2017-08-24T11:17:06.085Z,35.50
2017-08-24T11:19:33.661Z,34.90
2017-08-24T11:22:01.267Z,34.70
2017-08-24T11:24:28.875Z,34.90
2017-08-24T11:26:56.718Z,34.90
2017-08-24T11:29:24.294Z,34.50
2017-08-24T11:31:51.899Z,33.80
2017-08-24T11:34:19.506Z,33.90
2017-08-24T11:36:47.076Z,33.90
2017-08-24T11:39:14.682Z,34.30
2017-08-24T11:41:42.328Z,35.00
2017-08-24T11:44:10.230Z,35.20
2017-08-24T11:46:37.789Z,35.30
2017-08-24T11:49:05.405Z,35.80
2017-08-24T11:51:33.001Z,36.00
2017-08-24T11:54:00.582Z,36.70
2017-08-24T11:56:28.186Z,36.80
2017-08-24T11:58:55.752Z,37.20
2017-08-24T12:01:23.877Z,36.70
2017-08-24T12:03:51.455Z,37.10
2017-08-24T12:06:19.804Z,36.70
2017-08-24T12:08:47.415Z,36.70
2017-08-24T12:11:15.035Z,37.60
2017-08-24T12:13:42.988Z,37.20
2017-08-24T12:16:10.580Z,36.80
2017-08-24T12:18:38.162Z,36.00
2017-08-24T12:21:05.942Z,35.70
2017-08-24T12:23:33.533Z,35.20
2017-08-24T12:26:01.421Z,35.30
2017-08-24T12:28:29.053Z,36.10
2017-08-24T12:30:56.696Z,36.40
2017-08-24T12:33:25.073Z,35.80
2017-08-24T12:35:52.740Z,35.80
2017-08-24T12:38:20.632Z,36.10
2017-08-24T12:40:48.440Z,35.60
2017-08-24T12:43:16.807Z,35.40
2017-08-24T12:45:44.390Z,35.40
2017-08-24T12:48:11.997Z,35.60
2017-08-24T12:50:39.584Z,35.20
2017-08-24T12:53:07.136Z,35.50
2017-08-24T12:55:35.100Z,35.90
2017-08-24T12:58:02.679Z,36.10
2017-08-24T13:00:30.237Z,36.10
2017-08-24T13:02:58.598Z,34.60
2017-08-24T13:05:26.231Z,34.60
2017-08-24T13:07:53.841Z,33.70
2017-08-24T13:10:22.188Z,33.50
2017-08-24T13:12:50.135Z,33.50
2017-08-24T13:15:17.708Z,33.60
2017-08-24T13:17:45.279Z,33.90
2017-08-24T13:20:12.868Z,33.50
2017-08-24T13:22:40.464Z,33.30
2017-08-24T13:25:08.064Z,33.50
2017-08-24T13:27:35.665Z,33.00
2017-08-24T13:30:03.595Z,32.70
2017-08-24T13:32:31.171Z,32.30
2017-08-24T13:34:58.757Z,32.10
2017-08-24T13:37:26.349Z,31.60
2017-08-24T13:39:54.011Z,30.50
2017-08-24T13:42:21.605Z,29.70
2017-08-24T13:44:49.270Z,29.90
2017-08-24T13:47:17.195Z,30.30
2017-08-24T13:49:44.772Z,30.30
2017-08-24T13:52:12.364Z,29.90
2017-08-24T13:54:40.018Z,29.60
2017-08-24T13:57:07.617Z,29.30
2017-08-24T13:59:35.208Z,28.90
2017-08-24T14:02:02.786Z,28.80
2017-08-24T14:04:30.367Z,29.20
2017-08-24T14:06:57.980Z,29.40
2017-08-24T14:09:25.568Z,29.50
2017-08-24T14:11:53.184Z,29.60
2017-08-24T14:14:20.792Z,29.30
2017-08-24T14:16:48.851Z,29.30
2017-08-24T14:19:16.430Z,29.50
2017-08-24T14:21:44.006Z,29.90
2017-08-24T14:24:11.603Z,30.30
2017-08-24T14:26:39.187Z,30.60
2017-08-24T14:29:07.171Z,30.40
2017-08-24T14:31:34.813Z,29.90
2017-08-24T14:34:02.419Z,29.90
2017-08-24T14:36:30.035Z,30.10
2017-08-24T14:38:57.626Z,30.00
2017-08-24T14:41:26.281Z,29.50
2017-08-24T14:43:53.874Z,29.50
2017-08-24T14:46:21.466Z,29.30
2017-08-24T14:48:49.048Z,29.10
2017-08-24T14:51:16.637Z,29.00
2017-08-24T14:53:44.244Z,28.70
2017-08-24T14:56:11.847Z,28.60
2017-08-24T14:58:39.787Z,28.50
2017-08-24T15:01:07.370Z,28.50
2017-08-24T15:03:34.969Z,28.40
2017-08-24T15:06:02.582Z,28.30
2017-08-24T15:08:30.170Z,27.60
2017-08-24T15:10:57.771Z,27.70
2017-08-24T15:13:25.387Z,27.80
2017-08-24T15:15:53.234Z,27.70
2017-08-24T15:18:20.821Z,27.80
2017-08-24T15:20:49.172Z,27.80
2017-08-24T15:23:16.767Z,27.80
2017-08-24T15:25:44.417Z,27.80
2017-08-24T15:28:12.018Z,27.60
2017-08-24T15:30:39.583Z,27.30
2017-08-24T15:33:07.453Z,27.00
2017-08-24T15:35:35.136Z,26.60
2017-08-24T15:38:02.732Z,26.60
2017-08-24T15:40:30.317Z,26.60
2017-08-24T15:42:57.913Z,26.70
2017-08-24T15:45:25.517Z,26.80
2017-08-24T15:47:53.194Z,26.90
2017-08-24T15:50:21.086Z,27.00
2017-08-24T15:52:48.695Z,27.00
2017-08-24T15:55:16.233Z,27.00
2017-08-24T15:57:43.824Z,27.00
2017-08-24T16:00:11.406Z,27.00
2017-08-24T16:02:39.174Z,26.90
2017-08-24T16:05:06.759Z,26.90
2017-08-24T16:07:34.331Z,26.80
2017-08-24T16:10:01.941Z,26.60
2017-08-24T16:12:29.675Z,26.30
2017-08-24T16:14:57.315Z,26.20
2017-08-24T16:17:24.910Z,26.10
2017-08-24T16:19:52.589Z,26.00
2017-08-24T16:22:20.214Z,25.80
2017-08-24T16:24:47.824Z,25.90
2017-08-24T16:27:15.436Z,26.00
2017-08-24T16:29:43.804Z,26.10
2017-08-24T16:32:11.388Z,26.10
2017-08-24T16:34:39.019Z,26.10
2017-08-24T16:37:06.624Z,26.10
2017-08-24T16:39:34.648Z,26.00
2017-08-24T16:42:02.256Z,25.90
2017-08-24T16:44:29.839Z,25.80
2017-08-24T16:46:57.448Z,25.70
2017-08-24T16:49:25.044Z,25.70
2017-08-24T16:51:52.943Z,25.60
2017-08-24T16:54:20.560Z,25.50
2017-08-24T16:56:48.153Z,25.40
2017-08-24T16:59:15.776Z,25.50
2017-08-24T17:01:43.433Z,25.40
2017-08-24T17:04:11.045Z,25.40
2017-08-24T17:06:38.636Z,25.40
2017-08-24T17:09:06.276Z,25.30
2017-08-24T17:11:34.754Z,25.10
2017-08-24T17:14:02.341Z,25.10
2017-08-24T17:16:29.933Z,25.10
2017-08-24T17:18:57.560Z,25.00
2017-08-24T17:21:25.148Z,25.10
2017-08-24T17:23:52.759Z,25.10
2017-08-24T17:26:20.338Z,25.00
2017-08-24T17:28:47.922Z,24.80
2017-08-24T17:31:15.536Z,24.60
2017-08-24T17:33:43.091Z,24.50
2017-08-24T17:36:10.701Z,24.40
2017-08-24T17:38:38.486Z,24.40
2017-08-24T17:41:06.044Z,24.30
2017-08-24T17:43:33.674Z,24.20
2017-08-24T17:46:01.280Z,24.10
2017-08-24T17:48:28.904Z,24.00
2017-08-24T17:50:56.478Z,24.00
2017-08-24T17:53:24.088Z,24.00
2017-08-24T17:55:51.699Z,23.90
2017-08-24T17:58:19.271Z,23.90
2017-08-24T18:00:46.927Z,23.90
2017-08-24T18:03:14.523Z,23.70
2017-08-24T18:05:42.117Z,23.60
2017-08-24T18:08:09.759Z,23.50
2017-08-24T18:10:37.358Z,23.40
2017-08-24T18:13:04.998Z,23.30
2017-08-24T18:15:32.584Z,23.40
2017-08-24T18:18:00.187Z,23.40
2017-08-24T18:20:27.790Z,23.40
2017-08-24T18:22:55.380Z,23.30
2017-08-24T18:25:22.992Z,23.20
2017-08-24T18:27:50.580Z,23.10
2017-08-24T18:30:18.178Z,23.00
2017-08-24T18:32:45.819Z,22.90
2017-08-24T18:35:13.420Z,22.80
2017-08-24T18:37:41.115Z,22.70
2017-08-24T18:40:08.699Z,22.60
2017-08-24T18:42:36.335Z,22.50
2017-08-24T18:45:03.941Z,22.40
2017-08-24T18:47:31.512Z,22.20
2017-08-24T18:49:59.103Z,22.10
2017-08-24T18:52:26.690Z,22.00
2017-08-24T18:54:54.302Z,21.90
2017-08-24T18:57:21.909Z,21.70
2017-08-24T18:59:49.523Z,21.50
2017-08-24T19:02:17.123Z,21.40
2017-08-24T19:04:44.744Z,21.30
2017-08-24T19:07:12.342Z,21.20
2017-08-24T19:09:39.961Z,21.00
2017-08-24T19:12:07.557Z,20.90
2017-08-24T19:14:35.490Z,20.80
2017-08-24T19:17:03.108Z,20.80
2017-08-24T19:19:31.220Z,20.70
2017-08-24T19:22:00.070Z,20.60
2017-08-24T19:24:28.436Z,20.50
2017-08-24T19:26:56.096Z,20.40
2017-08-24T19:29:23.679Z,20.30
2017-08-24T19:31:51.292Z,20.20
2017-08-24T19:34:18.908Z,20.10
2017-08-24T19:36:46.483Z,19.90
2017-08-24T19:39:14.135Z,19.80
2017-08-24T19:41:41.725Z,19.70
2017-08-24T19:44:09.313Z,19.60
2017-08-24T19:46:37.754Z,19.60
2017-08-24T19:49:05.328Z,19.50
2017-08-24T19:51:32.952Z,19.40
2017-08-24T19:54:00.525Z,19.30
2017-08-24T19:56:28.122Z,19.30
2017-08-24T19:58:55.747Z,19.30
2017-08-24T20:01:24.095Z,19.30
2017-08-24T20:03:52.102Z,19.30
2017-08-24T20:06:19.671Z,19.30
2017-08-24T20:08:47.251Z,19.20
2017-08-24T20:11:14.847Z,19.10
2017-08-24T20:13:42.429Z,18.90
2017-08-24T20:16:10.078Z,18.80
2017-08-24T20:18:37.652Z,18.70
2017-08-24T20:21:06.284Z,18.60
2017-08-24T20:23:33.885Z,18.60
2017-08-24T20:26:01.488Z,18.50
2017-08-24T20:28:29.155Z,18.50
2017-08-24T20:30:56.744Z,18.40
2017-08-24T20:33:24.351Z,18.30
2017-08-24T20:35:52.689Z,18.20
2017-08-24T20:38:20.290Z,18.20
2017-08-24T20:40:47.947Z,18.20
2017-08-24T20:43:15.528Z,18.10
2017-08-24T20:45:43.188Z,18.20
2017-08-24T20:48:10.802Z,18.10
2017-08-24T20:50:38.377Z,18.10
2017-08-24T20:53:05.975Z,18.10
2017-08-24T20:55:33.555Z,18.00
2017-08-24T20:58:01.293Z,18.00
2017-08-24T21:00:28.833Z,17.90
2017-08-24T21:02:56.419Z,17.80
2017-08-24T21:05:24.073Z,17.80
2017-08-24T21:07:51.660Z,17.80
2017-08-24T21:10:19.289Z,17.80
2017-08-24T21:12:46.862Z,17.70
2017-08-24T21:15:14.472Z,17.70
2017-08-24T21:17:42.063Z,17.70
2017-08-24T21:20:09.607Z,17.70
2017-08-24T21:22:37.211Z,17.70
2017-08-24T21:25:04.777Z,17.70
2017-08-24T21:27:32.372Z,17.70
2017-08-24T21:29:59.991Z,17.80
2017-08-24T21:32:27.577Z,17.80
2017-08-24T21:34:55.196Z,17.80
2017-08-24T21:37:22.772Z,17.90
2017-08-24T21:39:50.344Z,17.90
2017-08-24T21:42:17.939Z,18.00
2017-08-24T21:44:46.271Z,18.10
2017-08-24T21:47:13.866Z,18.10
2017-08-24T21:49:42.241Z,18.20
2017-08-24T21:52:09.832Z,18.10
2017-08-24T21:54:37.443Z,18.20
2017-08-24T21:57:05.075Z,18.20
2017-08-24T21:59:32.641Z,18.20
2017-08-24T22:02:00.213Z,18.20
2017-08-24T22:04:27.807Z,18.20
2017-08-24T22:06:55.382Z,18.30
2017-08-24T22:09:23.067Z,18.30
2017-08-24T22:11:50.708Z,18.50
2017-08-24T22:14:18.292Z,18.30
2017-08-24T22:16:45.887Z,18.30
2017-08-24T22:19:13.457Z,18.30
2017-08-24T22:21:41.044Z,18.30
2017-08-24T22:24:08.644Z,18.30
2017-08-24T22:26:36.258Z,18.30
2017-08-24T22:29:03.856Z,18.20
2017-08-24T22:31:31.637Z,18.20
2017-08-24T22:33:59.271Z,18.10
2017-08-24T22:36:26.870Z,18.10
2017-08-24T22:38:54.436Z,18.10
2017-08-24T22:41:22.028Z,18.10
2017-08-24T22:43:49.604Z,18.10
2017-08-24T22:46:17.179Z,18.10
2017-08-24T22:48:44.757Z,18.10
2017-08-24T22:51:12.556Z,18.10
2017-08-24T22:53:45.891Z,18.10
2017-08-24T22:56:19.035Z,18.10
2017-08-24T22:58:53.101Z,18.10
2017-08-24T23:01:26.367Z,18.00
2017-08-24T23:03:59.736Z,18.10
2017-08-24T23:06:27.315Z,18.00
2017-08-24T23:08:54.896Z,18.00
2017-08-24T23:11:22.486Z,17.90
2017-08-24T23:13:50.059Z,17.80
2017-08-24T23:16:17.663Z,17.80
2017-08-24T23:18:45.475Z,17.70
2017-08-24T23:21:13.046Z,17.60
2017-08-24T23:23:40.658Z,17.60
2017-08-24T23:26:08.210Z,17.60
2017-08-24T23:28:35.881Z,17.60
2017-08-24T23:31:03.442Z,17.60
2017-08-24T23:33:31.104Z,17.60
2017-08-24T23:35:58.744Z,17.60
2017-08-24T23:38:26.320Z,17.60
2017-08-24T23:40:53.911Z,17.60
2017-08-24T23:43:21.502Z,17.50
2017-08-24T23:45:49.058Z,17.40
2017-08-24T23:48:16.660Z,17.30
2017-08-24T23:50:44.247Z,17.30
2017-08-24T23:53:11.831Z,17.20
2017-08-24T23:55:39.451Z,17.20
2017-08-24T23:58:07.040Z,17.10
